createdAt,value
2023-03-04T00:02:05.419Z,32.92
2023-03-04T00:05:07.739Z,35.92
2023-03-04T00:08:09.064Z,31.33
2023-03-04T00:11:10.646Z,34.30
2023-03-04T00:14:12.765Z,34.13
2023-03-04T00:17:14.087Z,36.50
2023-03-04T00:20:15.725Z,32.05
2023-03-04T00:23:17.641Z,33.17
2023-03-04T00:26:19.169Z,36.40
2023-03-04T00:29:21.621Z,35.37
2023-03-04T00:32:23.242Z,31.02
2023-03-04T00:35:24.775Z,33.03
2023-03-04T00:38:26.782Z,32.13
2023-03-04T00:41:28.227Z,31.23
2023-03-04T00:44:30.352Z,30.40
2023-03-04T00:47:31.840Z,29.08
2023-03-04T00:50:33.339Z,26.30
2023-03-04T00:53:34.828Z,29.42
2023-03-04T00:56:36.130Z,23.93
2023-03-04T00:59:38.300Z,21.20
2023-03-04T01:02:40.010Z,24.00
2023-03-04T01:05:41.326Z,22.65
2023-03-04T01:08:42.833Z,20.38
2023-03-04T01:11:44.265Z,26.13
2023-03-04T01:14:46.422Z,22.90
2023-03-04T01:17:48.086Z,24.30
2023-03-04T01:20:49.521Z,21.27
2023-03-04T01:23:50.985Z,24.25
2023-03-04T01:26:52.312Z,20.97
2023-03-04T01:29:54.426Z,20.67
2023-03-04T01:32:55.903Z,26.52
2023-03-04T01:35:57.725Z,19.88
2023-03-04T01:38:59.141Z,18.70
2023-03-04T01:42:00.552Z,18.63
2023-03-04T01:45:03.852Z,17.67
2023-03-04T01:48:05.488Z,19.40
2023-03-04T01:51:12.706Z,20.60
2023-03-04T01:54:15.598Z,16.42
2023-03-04T01:57:18.530Z,12.47
2023-03-04T02:00:27.819Z,19.57
2023-03-04T02:03:29.663Z,19.95
2023-03-04T02:06:31.738Z,16.63
2023-03-04T02:09:34.362Z,16.73
2023-03-04T02:12:35.982Z,18.43
2023-03-04T02:15:38.528Z,17.20
2023-03-04T02:18:40.190Z,16.42
2023-03-04T02:21:41.719Z,14.75
2023-03-04T02:24:47.765Z,17.38
2023-03-04T02:27:50.240Z,17.03
2023-03-04T02:30:52.087Z,15.37
2023-03-04T02:33:56.533Z,13.50
2023-03-04T02:36:58.907Z,16.88
2023-03-04T02:40:00.427Z,12.32
2023-03-04T02:43:02.364Z,19.67
2023-03-04T02:46:04.157Z,14.37
2023-03-04T02:49:05.431Z,17.30
2023-03-04T02:52:09.542Z,13.77
2023-03-04T02:55:10.953Z,17.65
2023-03-04T02:58:14.084Z,14.03
2023-03-04T03:01:15.536Z,13.43
2023-03-04T03:04:17.930Z,13.02
2023-03-04T03:07:19.389Z,16.58
2023-03-04T03:10:21.050Z,16.08
2023-03-04T03:13:24.015Z,13.50
2023-03-04T03:16:25.507Z,17.70
2023-03-04T03:19:26.892Z,8.98
2023-03-04T03:22:28.290Z,15.20
2023-03-04T03:25:29.611Z,11.50
2023-03-04T03:28:31.937Z,14.60
2023-03-04T03:31:33.302Z,13.70
2023-03-04T03:34:34.641Z,15.07
2023-03-04T03:37:35.998Z,14.20
2023-03-04T03:40:37.325Z,11.15
2023-03-04T03:43:39.484Z,16.00
2023-03-04T03:46:40.890Z,10.23
2023-03-04T03:49:42.351Z,13.20
2023-03-04T03:52:43.606Z,14.30
2023-03-04T03:55:44.907Z,10.45
2023-03-04T03:58:46.920Z,16.53
2023-03-04T04:01:48.488Z,11.03
2023-03-04T04:04:49.882Z,14.70
2023-03-04T04:07:53.665Z,10.23
2023-03-04T04:10:55.396Z,11.90
2023-03-04T04:13:57.385Z,15.50
2023-03-04T04:16:59.088Z,13.93
2023-03-04T04:20:00.529Z,17.02
2023-03-04T04:23:02.729Z,11.57
2023-03-04T04:26:04.610Z,10.35
2023-03-04T04:29:07.908Z,12.13
2023-03-04T04:32:09.476Z,10.40
2023-03-04T04:35:10.951Z,11.25
2023-03-04T04:38:12.311Z,10.90
2023-03-04T04:41:19.992Z,14.88
2023-03-04T04:44:22.105Z,13.40
2023-03-04T04:47:23.670Z,12.63
2023-03-04T04:50:25.284Z,10.95
2023-03-04T04:53:26.683Z,10.43
2023-03-04T04:56:28.509Z,10.68
2023-03-04T04:59:30.739Z,9.70
2023-03-04T05:02:35.569Z,9.77
2023-03-04T05:05:36.992Z,9.57
2023-03-04T05:08:38.792Z,9.82
2023-03-04T05:11:40.130Z,11.50
2023-03-04T05:14:42.140Z,11.03
2023-03-04T05:17:43.826Z,10.53
2023-03-04T05:20:45.106Z,10.00
2023-03-04T05:23:46.656Z,8.52
2023-03-04T05:26:48.075Z,7.40
2023-03-04T05:29:50.230Z,9.43
2023-03-04T05:32:51.542Z,12.50
2023-03-04T05:35:54.374Z,7.65
2023-03-04T05:38:55.697Z,10.10
2023-03-04T05:41:57.163Z,9.13
2023-03-04T05:44:59.066Z,10.03
2023-03-04T05:48:00.588Z,7.83
2023-03-04T05:51:01.968Z,10.35
2023-03-04T05:54:03.832Z,10.13
2023-03-04T05:57:05.359Z,9.13
2023-03-04T06:00:09.317Z,8.30
2023-03-04T06:03:14.229Z,6.20
2023-03-04T06:06:15.720Z,6.83
2023-03-04T06:09:17.181Z,9.10
2023-03-04T06:12:18.587Z,7.32
2023-03-04T06:15:20.564Z,7.65
2023-03-04T06:18:22.681Z,7.60
2023-03-04T06:21:24.212Z,10.23
2023-03-04T06:24:27.554Z,6.43
2023-03-04T06:27:29.027Z,7.53
2023-03-04T06:30:30.988Z,6.97
2023-03-04T06:33:32.511Z,6.57
2023-03-04T06:36:34.095Z,7.53
2023-03-04T06:39:36.151Z,3.63
2023-03-04T06:42:38.028Z,7.32
2023-03-04T06:45:40.052Z,6.32
2023-03-04T06:48:41.568Z,4.30
2023-03-04T06:51:43.025Z,5.87
2023-03-04T06:54:44.339Z,7.03
2023-03-04T06:57:48.404Z,8.13
2023-03-04T07:00:50.472Z,4.15
2023-03-04T07:03:53.589Z,6.25
2023-03-04T07:06:55.039Z,5.53
2023-03-04T07:09:56.519Z,6.78
2023-03-04T07:12:57.841Z,9.57
2023-03-04T07:16:00.399Z,7.78
2023-03-04T07:19:01.873Z,6.68
2023-03-04T07:22:03.207Z,5.70
2023-03-04T07:25:05.526Z,4.13
2023-03-04T07:28:06.817Z,4.65
2023-03-04T07:31:18.908Z,6.32
2023-03-04T07:34:20.320Z,7.15
2023-03-04T07:37:21.875Z,6.70
2023-03-04T07:40:23.499Z,7.10
2023-03-04T07:43:25.057Z,6.05
2023-03-04T07:46:26.973Z,5.68
2023-03-04T07:49:28.636Z,5.50
2023-03-04T07:52:30.531Z,6.40
2023-03-04T07:55:31.984Z,6.65
2023-03-04T07:58:33.680Z,4.55
2023-03-04T08:01:39.587Z,6.53
2023-03-04T08:04:41.220Z,6.07
2023-03-04T08:07:42.644Z,5.23
2023-03-04T08:10:44.761Z,4.15
2023-03-04T08:13:46.613Z,7.80
2023-03-04T08:16:48.743Z,5.72
2023-03-04T08:19:50.100Z,7.85
2023-03-04T08:22:51.536Z,6.70
2023-03-04T08:25:53.734Z,7.75
2023-03-04T08:28:56.196Z,5.65
2023-03-04T08:31:58.451Z,6.25
2023-03-04T08:35:01.681Z,7.40
2023-03-04T08:38:03.300Z,5.03
2023-03-04T08:41:05.146Z,5.22
2023-03-04T08:44:07.701Z,6.53
2023-03-04T08:47:09.648Z,9.63
2023-03-04T08:50:11.392Z,7.32
2023-03-04T08:53:13.589Z,4.60
2023-03-04T08:56:16.304Z,4.82
2023-03-04T08:59:18.555Z,4.90
2023-03-04T09:02:20.685Z,4.88
2023-03-04T09:05:22.234Z,4.78
2023-03-04T09:08:23.640Z,5.70
2023-03-04T09:11:25.102Z,5.43
2023-03-04T09:14:26.413Z,6.43
2023-03-04T09:17:28.535Z,4.35
2023-03-04T09:20:30.033Z,6.35
2023-03-04T09:23:31.419Z,6.97
2023-03-04T09:26:32.929Z,7.60
2023-03-04T09:29:34.377Z,6.10
2023-03-04T09:32:36.584Z,5.70
2023-03-04T09:35:38.174Z,8.95
2023-03-04T09:38:40.056Z,7.73
2023-03-04T09:41:44.368Z,5.63
2023-03-04T09:44:46.886Z,7.43
2023-03-04T09:47:52.157Z,10.77
2023-03-04T09:51:11.030Z,7.13
2023-03-04T09:54:22.783Z,10.03
2023-03-04T09:57:29.600Z,5.72
2023-03-04T10:00:38.824Z,5.75
2023-03-04T10:03:44.677Z,8.88
2023-03-04T10:06:53.652Z,6.50
2023-03-04T10:09:59.824Z,7.27
2023-03-04T10:13:04.124Z,4.20
2023-03-04T10:16:08.344Z,8.00
2023-03-04T10:19:29.739Z,6.22
2023-03-04T10:22:34.612Z,8.00
2023-03-04T10:25:41.048Z,9.83
2023-03-04T10:28:43.123Z,6.03
2023-03-04T10:31:45.594Z,6.40
2023-03-04T10:34:47.840Z,6.32
2023-03-04T10:37:50.661Z,10.20
2023-03-04T10:40:51.991Z,9.60
2023-03-04T10:44:02.658Z,7.88
2023-03-04T10:47:09.747Z,8.35
2023-03-04T10:50:22.544Z,6.07
2023-03-04T10:53:32.644Z,9.88
2023-03-04T10:56:38.947Z,10.23
2023-03-04T10:59:45.234Z,8.00
2023-03-04T11:02:47.389Z,7.00
2023-03-04T11:05:49.758Z,10.95
2023-03-04T11:08:55.597Z,8.32
2023-03-04T11:12:00.035Z,11.43
2023-03-04T11:15:02.489Z,9.35
2023-03-04T11:18:07.210Z,8.77
2023-03-04T11:21:16.658Z,6.38
2023-03-04T11:24:28.652Z,7.70
2023-03-04T11:27:44.636Z,11.53
2023-03-04T11:30:50.871Z,10.50
2023-03-04T11:33:56.821Z,11.15
2023-03-04T11:37:05.750Z,9.18
2023-03-04T11:40:12.194Z,18.83
2023-03-04T11:43:18.954Z,10.77
2023-03-04T11:46:51.021Z,9.67
2023-03-04T11:50:05.014Z,8.88
2023-03-04T11:53:33.427Z,13.98
2023-03-04T11:56:39.269Z,7.88
2023-03-04T11:59:56.483Z,12.20
2023-03-04T12:03:17.541Z,10.37
2023-03-04T12:06:26.797Z,7.00
2023-03-04T12:09:40.601Z,7.80
2023-03-04T12:12:58.297Z,10.07
2023-03-04T12:16:10.944Z,6.97
2023-03-04T12:19:28.890Z,13.47
2023-03-04T12:22:38.105Z,7.95
2023-03-04T12:25:50.001Z,9.48
2023-03-04T12:29:01.602Z,5.78
2023-03-04T12:32:11.229Z,8.50
2023-03-04T12:35:31.010Z,5.70
2023-03-04T12:38:49.037Z,4.85
2023-03-04T12:41:59.751Z,8.90
2023-03-04T12:45:08.045Z,10.77
2023-03-04T12:48:21.871Z,9.07
2023-03-04T12:51:32.195Z,8.77
2023-03-04T12:54:38.952Z,11.05
2023-03-04T12:57:41.983Z,9.57
2023-03-04T13:00:59.249Z,6.50
2023-03-04T13:04:05.087Z,11.53
2023-03-04T13:07:13.733Z,8.70
2023-03-04T13:10:19.280Z,11.90
2023-03-04T13:13:40.423Z,9.63
2023-03-04T13:16:43.785Z,8.32
2023-03-04T13:19:51.364Z,11.73
2023-03-04T13:22:58.133Z,10.47
2023-03-04T13:26:19.992Z,8.88
2023-03-04T13:29:36.071Z,10.48
2023-03-04T13:32:38.386Z,8.05
2023-03-04T13:35:59.450Z,7.17
2023-03-04T13:39:02.942Z,8.73
2023-03-04T13:42:41.493Z,12.90
2023-03-04T13:45:42.953Z,12.90
2023-03-04T13:48:59.753Z,6.85
2023-03-04T13:52:38.187Z,7.87
2023-03-04T13:55:42.316Z,10.43
2023-03-04T13:58:45.821Z,9.05
2023-03-04T14:01:56.105Z,8.07
2023-03-04T14:04:59.925Z,10.23
2023-03-04T14:08:19.771Z,11.50
2023-03-04T14:11:30.791Z,7.97
2023-03-04T14:14:42.459Z,11.48
2023-03-04T14:17:48.270Z,12.45
2023-03-04T14:20:50.678Z,9.98
2023-03-04T14:24:01.127Z,10.63
2023-03-04T14:27:12.227Z,10.32
2023-03-04T14:30:31.890Z,10.50
2023-03-04T14:33:45.088Z,14.45
2023-03-04T14:36:46.471Z,11.87
2023-03-04T14:39:53.136Z,9.73
2023-03-04T14:42:57.352Z,11.57
2023-03-04T14:46:02.502Z,13.93
2023-03-04T14:49:04.110Z,13.10
2023-03-04T14:52:06.386Z,10.07
2023-03-04T14:55:21.671Z,8.93
2023-03-04T14:58:25.029Z,9.40
2023-03-04T15:01:33.209Z,8.93
2023-03-04T15:04:37.781Z,8.50
2023-03-04T15:07:40.149Z,10.83
2023-03-04T15:10:41.716Z,9.73
2023-03-04T15:13:45.487Z,6.28
2023-03-04T15:16:55.656Z,8.55
2023-03-04T15:20:03.047Z,9.60
2023-03-04T15:23:06.898Z,10.05
2023-03-04T15:26:10.286Z,10.27
2023-03-04T15:29:14.401Z,9.10
2023-03-04T15:32:16.539Z,13.68
2023-03-04T15:35:19.292Z,11.02
2023-03-04T15:38:21.064Z,9.90
2023-03-04T15:41:25.789Z,7.43
2023-03-04T15:44:27.206Z,10.50
2023-03-04T15:47:29.334Z,13.40
2023-03-04T15:50:30.650Z,10.85
2023-03-04T15:53:35.395Z,13.60
2023-03-04T15:56:36.921Z,10.38
2023-03-04T15:59:38.396Z,9.50
2023-03-04T16:02:41.414Z,9.40
2023-03-04T16:05:44.353Z,10.82
2023-03-04T16:08:46.664Z,9.32
2023-03-04T16:11:48.148Z,11.02
2023-03-04T16:14:50.558Z,10.07
2023-03-04T16:17:52.706Z,11.55
2023-03-04T16:20:54.280Z,9.30
2023-03-04T16:23:55.718Z,7.13
2023-03-04T16:30:19.309Z,8.00
2023-03-04T16:33:21.460Z,7.55
2023-03-04T16:36:25.297Z,7.00
2023-03-04T16:39:26.645Z,7.57
2023-03-04T16:42:28.045Z,5.93
2023-03-04T16:45:30.081Z,8.60
2023-03-04T16:48:32.266Z,8.10
2023-03-04T16:51:35.957Z,9.13
2023-03-04T16:54:37.229Z,7.80
2023-03-04T16:57:39.111Z,7.68
2023-03-04T17:00:40.415Z,11.90
2023-03-04T17:03:42.496Z,11.18
2023-03-04T17:06:43.967Z,4.73
2023-03-04T17:09:45.252Z,8.40
2023-03-04T17:12:46.673Z,9.35
2023-03-04T17:15:51.127Z,7.75
2023-03-04T17:18:53.268Z,7.93
2023-03-04T17:21:56.277Z,11.20
2023-03-04T17:24:57.792Z,8.60
2023-03-04T17:27:59.142Z,7.57
2023-03-04T17:31:00.799Z,6.40
2023-03-04T17:34:03.216Z,8.68
2023-03-04T17:37:04.734Z,6.97
2023-03-04T17:40:08.175Z,6.68
2023-03-04T17:43:10.873Z,9.97
2023-03-04T17:46:14.089Z,10.27
2023-03-04T17:49:16.527Z,7.60
2023-03-04T17:52:18.519Z,8.20
2023-03-04T17:55:19.981Z,6.93
2023-03-04T17:58:22.249Z,10.27
2023-03-04T18:01:23.538Z,10.20
2023-03-04T18:04:25.697Z,9.50
2023-03-04T18:07:28.193Z,7.37
2023-03-04T18:10:29.989Z,9.20
2023-03-04T18:13:31.589Z,8.85
2023-03-04T18:16:32.925Z,10.88
2023-03-04T18:19:35.024Z,10.90
2023-03-04T18:22:36.306Z,8.90
2023-03-04T18:25:37.573Z,12.05
2023-03-04T18:28:39.297Z,11.75
2023-03-04T18:31:40.685Z,10.80
2023-03-04T18:34:42.806Z,10.98
2023-03-04T18:37:44.575Z,6.67
2023-03-04T18:40:46.073Z,9.85
2023-03-04T18:43:47.478Z,9.75
2023-03-04T18:46:53.015Z,10.60
2023-03-04T18:49:55.095Z,12.25
2023-03-04T18:52:56.441Z,9.50
2023-03-04T18:56:02.854Z,11.35
2023-03-04T18:59:06.851Z,8.02
2023-03-04T19:02:13.658Z,11.70
2023-03-04T19:05:27.450Z,9.27
2023-03-04T19:08:32.331Z,10.17
2023-03-04T19:11:33.892Z,8.15
2023-03-04T19:14:35.256Z,10.10
2023-03-04T19:17:37.449Z,8.65
2023-03-04T19:20:40.916Z,9.15
2023-03-04T19:23:42.361Z,11.87
2023-03-04T19:26:43.668Z,11.20
2023-03-04T19:29:45.082Z,9.77
2023-03-04T19:32:46.734Z,9.60
2023-03-04T19:35:48.954Z,15.68
2023-03-04T19:38:50.645Z,10.70
2023-03-04T19:41:52.179Z,11.30
2023-03-04T19:44:53.787Z,12.32
2023-03-04T19:47:56.420Z,9.00
2023-03-04T19:50:59.226Z,9.88
2023-03-04T19:54:01.203Z,10.77
2023-03-04T19:57:02.689Z,9.13
2023-03-04T20:00:05.024Z,8.00
2023-03-04T20:03:07.155Z,11.70
2023-03-04T20:06:09.128Z,10.30
2023-03-04T20:09:11.705Z,10.33
2023-03-04T20:12:13.033Z,8.27
2023-03-04T20:15:14.993Z,7.32
2023-03-04T20:18:16.482Z,8.63
2023-03-04T20:21:18.558Z,13.30
2023-03-04T20:24:22.470Z,9.03
2023-03-04T20:27:23.791Z,9.55
2023-03-04T20:30:25.227Z,6.07
2023-03-04T20:33:26.790Z,9.73
2023-03-04T20:36:29.847Z,8.75
2023-03-04T20:39:31.330Z,8.57
2023-03-04T20:42:33.136Z,9.45
2023-03-04T20:45:36.674Z,8.90
2023-03-04T20:48:37.984Z,9.40
2023-03-04T20:51:40.198Z,9.32
2023-03-04T20:54:41.972Z,12.80
2023-03-04T20:57:43.335Z,10.10
2023-03-04T21:00:44.808Z,9.95
2023-03-04T21:03:46.991Z,11.43
2023-03-04T21:06:50.942Z,7.93
2023-03-04T21:09:52.642Z,12.40
2023-03-04T21:12:53.955Z,9.27
2023-03-04T21:15:55.734Z,7.47
2023-03-04T21:18:57.266Z,11.38
2023-03-04T21:22:00.849Z,10.15
2023-03-04T21:25:02.179Z,9.13
2023-03-04T21:28:04.010Z,9.00
2023-03-04T21:31:09.831Z,10.18
2023-03-04T21:34:15.800Z,8.07
2023-03-04T21:37:18.163Z,11.07
2023-03-04T21:40:20.313Z,7.23
2023-03-04T21:43:23.127Z,6.07
2023-03-04T21:46:24.624Z,9.77
2023-03-04T21:49:26.725Z,7.07
2023-03-04T21:52:28.957Z,7.55
2023-03-04T21:55:30.349Z,7.30
2023-03-04T21:58:34.394Z,6.93
2023-03-04T22:01:35.805Z,7.07
2023-03-04T22:04:37.059Z,8.82
2023-03-04T22:07:39.154Z,9.80
2023-03-04T22:10:41.258Z,8.67
2023-03-04T22:13:43.116Z,9.93
2023-03-04T22:16:54.426Z,6.90
2023-03-04T22:19:56.644Z,7.18
2023-03-04T22:22:58.759Z,9.20
2023-03-04T22:26:02.017Z,9.87
2023-03-04T22:29:04.768Z,7.00
2023-03-04T22:32:06.372Z,10.95
2023-03-04T22:35:09.911Z,7.05
2023-03-04T22:41:14.252Z,6.27
2023-03-04T22:44:15.756Z,10.38
2023-03-04T22:47:17.128Z,7.43
2023-03-04T22:50:20.328Z,8.27
2023-03-04T22:53:24.234Z,8.05
2023-03-04T22:56:27.458Z,8.03
2023-03-04T22:59:29.023Z,10.55
2023-03-04T23:02:30.544Z,6.85
2023-03-04T23:05:32.302Z,7.60
2023-03-04T23:08:35.068Z,9.65
2023-03-04T23:11:38.329Z,6.97
2023-03-04T23:14:42.682Z,7.50
2023-03-04T23:17:45.556Z,9.18
2023-03-04T23:20:47.054Z,10.25
2023-03-04T23:23:49.533Z,9.13
2023-03-04T23:26:51.734Z,11.10
2023-03-04T23:29:53.091Z,10.53
2023-03-04T23:32:54.653Z,9.98
2023-03-04T23:35:56.139Z,12.27
2023-03-04T23:38:59.077Z,11.68
2023-03-04T23:42:00.666Z,8.03
2023-03-04T23:45:02.056Z,12.67
2023-03-04T23:48:03.692Z,11.05
2023-03-04T23:51:05.647Z,8.52
2023-03-04T23:54:07.843Z,10.85
2023-03-04T23:57:09.249Z,12.53
